Time;durP1;ratioP1;P1;durP2;ratioP2;P2;SDS_P1;SDS_P2;PMS_P1;PMS_P2;Temp;Humidity;BMP_temperature;BMP_pressure;BME280_temperature;BME280_humidity;BME280_pressure;Samples;Min_cycle;Max_cycle;Signal;HPM_P1;HPM_P2
2023/09/02 00:01:46;;;;;;;23.75;12.77;;;;;;;;;;5025240;28;20037;-63
2023/09/02 00:04:13;;;;;;;17.58;11.45;;;;;;;;;;5023653;28;20041;-69
2023/09/02 00:06:40;;;;;;;18.23;11.65;;;;;;;;;;5024505;28;20029;-66
2023/09/02 00:09:06;;;;;;;18.42;12.15;;;;;;;;;;5024549;28;20083;-64
2023/09/02 00:11:33;;;;;;;22.67;11.55;;;;;;;;;;5023686;28;20053;-65
2023/09/02 00:14:00;;;;;;;18.20;11.40;;;;;;;;;;5024916;28;20395;-66
2023/09/02 00:16:26;;;;;;;23.80;11.50;;;;;;;;;;5022352;28;20584;-64
2023/09/02 00:18:53;;;;;;;18.08;11.35;;;;;;;;;;5023364;28;20041;-63
2023/09/02 00:21:20;;;;;;;17.60;10.63;;;;;;;;;;5022537;28;20060;-66
2023/09/02 00:23:46;;;;;;;16.55;10.57;;;;;;;;;;5020953;28;20069;-65
2023/09/02 00:26:13;;;;;;;16.05;9.85;;;;;;;;;;5022660;28;20041;-65
2023/09/02 00:28:39;;;;;;;16.90;10.40;;;;;;;;;;5023346;28;20049;-65
2023/09/02 00:31:06;;;;;;;16.10;10.38;;;;;;;;;;5024973;28;20065;-64
2023/09/02 00:33:33;;;;;;;16.83;10.38;;;;;;;;;;5023547;28;20218;-63
2023/09/02 00:35:59;;;;;;;18.02;10.90;;;;;;;;;;5022829;28;20037;-64
2023/09/02 00:38:26;;;;;;;19.00;11.93;;;;;;;;;;5021783;28;20347;-64
2023/09/02 00:41:00;;;;;;;14.85;10.50;;;;;;;;;;5023191;28;20549;-65
2023/09/02 00:43:27;;;;;;;18.55;10.18;;;;;;;;;;5021493;28;20052;-65
2023/09/02 00:45:53;;;;;;;17.58;10.50;;;;;;;;;;5021315;28;20493;-66
2023/09/02 00:48:20;;;;;;;15.68;10.02;;;;;;;;;;5022166;28;20091;-64
2023/09/02 00:50:47;;;;;;;20.00;10.48;;;;;;;;;;5010200;28;20045;-64
2023/09/02 00:53:14;;;;;;;16.83;10.63;;;;;;;;;;5010217;28;20124;-65
2023/09/02 00:55:40;;;;;;;18.77;11.32;;;;;;;;;;5010203;28;20033;-65
2023/09/02 00:58:08;;;;;;;17.00;10.70;;;;;;;;;;5009822;28;20034;-67
2023/09/02 01:00:34;;;;;;;18.20;11.73;;;;;;;;;;5010611;28;20037;-65
2023/09/02 01:03:01;;;;;;;18.40;11.50;;;;;;;;;;4997929;28;20516;-65
2023/09/02 01:05:29;;;;;;;17.80;11.30;;;;;;;;;;4995830;28;20116;-64
2023/09/02 01:07:56;;;;;;;16.98;10.82;;;;;;;;;;4995822;28;20041;-66
2023/09/02 01:10:23;;;;;;;17.75;10.52;;;;;;;;;;4995377;28;20038;-66
2023/09/02 01:12:50;;;;;;;17.45;11.50;;;;;;;;;;4994646;28;20052;-65
2023/09/02 01:15:17;;;;;;;15.73;10.48;;;;;;;;;;4996249;28;20042;-67
2023/09/02 01:17:44;;;;;;;17.70;10.20;;;;;;;;;;4995779;28;20030;-68
2023/09/02 01:20:12;;;;;;;16.60;10.27;;;;;;;;;;5007529;28;20057;-65
2023/09/02 01:22:49;;;;;;;15.90;9.95;;;;;;;;;;4995055;28;20501;-65
2023/09/02 01:25:22;;;;;;;18.77;10.25;;;;;;;;;;4994806;28;20160;-65
2023/09/02 01:27:59;;;;;;;18.20;10.23;;;;;;;;;;4997910;28;20061;-63
2023/09/02 01:30:28;;;;;;;23.30;10.35;;;;;;;;;;4996869;28;20575;-65
2023/09/02 01:32:56;;;;;;;17.35;10.55;;;;;;;;;;5009595;28;20117;-64
2023/09/02 01:35:30;;;;;;;15.88;9.57;;;;;;;;;;4994626;28;20071;-64
2023/09/02 01:37:58;;;;;;;17.50;10.20;;;;;;;;;;4995779;28;20073;-65
2023/09/02 01:40:25;;;;;;;14.52;8.93;;;;;;;;;;4995800;28;20037;-63
2023/09/02 01:42:52;;;;;;;17.25;9.88;;;;;;;;;;4993988;28;20049;-64
2023/09/02 01:45:19;;;;;;;17.88;9.50;;;;;;;;;;4993335;28;20034;-65
2023/09/02 01:47:47;;;;;;;17.30;10.52;;;;;;;;;;4995814;28;20615;-65
2023/09/02 01:50:15;;;;;;;17.33;9.85;;;;;;;;;;4996250;28;20065;-63
2023/09/02 01:52:42;;;;;;;16.98;9.43;;;;;;;;;;4994315;28;20435;-66
2023/09/02 01:55:12;;;;;;;17.55;8.93;;;;;;;;;;4996602;28;20838;-65
2023/09/02 01:57:40;;;;;;;18.40;9.75;;;;;;;;;;4997849;28;20037;-66
2023/09/02 02:00:08;;;;;;;18.15;9.63;;;;;;;;;;5008657;28;20129;-66
2023/09/02 02:02:37;;;;;;;14.48;8.77;;;;;;;;;;4995604;28;20255;-65
2023/09/02 02:05:06;;;;;;;14.75;8.82;;;;;;;;;;4995638;28;20039;-66
2023/09/02 02:07:35;;;;;;;14.85;8.57;;;;;;;;;;4994987;28;20673;-66
2023/09/02 02:10:02;;;;;;;17.02;9.45;;;;;;;;;;4995897;28;20046;-65
2023/09/02 02:12:29;;;;;;;15.13;9.15;;;;;;;;;;4994880;28;20049;-66
2023/09/02 02:14:55;;;;;;;19.00;9.73;;;;;;;;;;4994620;28;20072;-64
2023/09/02 02:17:22;;;;;;;16.65;9.43;;;;;;;;;;4994505;28;20037;-65
2023/09/02 02:19:49;;;;;;;15.82;9.52;;;;;;;;;;4994680;28;20082;-66
2023/09/02 02:22:15;;;;;;;17.88;10.35;;;;;;;;;;4994587;28;21396;-66
2023/09/02 02:24:42;;;;;;;15.75;9.65;;;;;;;;;;4993793;28;20045;-65
2023/09/02 02:27:09;;;;;;;16.00;10.13;;;;;;;;;;4993639;28;20125;-63
2023/09/02 02:29:35;;;;;;;18.50;9.52;;;;;;;;;;4993791;28;20749;-64
2023/09/02 02:32:02;;;;;;;16.98;10.10;;;;;;;;;;4994302;28;20111;-63
2023/09/02 02:34:29;;;;;;;19.98;9.60;;;;;;;;;;4993306;28;20045;-64
2023/09/02 02:36:55;;;;;;;18.80;10.50;;;;;;;;;;4995117;28;20041;-64
2023/09/02 02:39:22;;;;;;;15.02;9.85;;;;;;;;;;4996418;28;20057;-65
2023/09/02 02:41:49;;;;;;;17.33;9.80;;;;;;;;;;4995124;28;20597;-65
2023/09/02 02:44:15;;;;;;;16.52;10.27;;;;;;;;;;4994745;28;20112;-65
2023/09/02 02:46:42;;;;;;;16.55;10.13;;;;;;;;;;4995042;28;20030;-65
2023/09/02 02:49:11;;;;;;;17.17;10.63;;;;;;;;;;4996061;28;20590;-65
2023/09/02 02:51:38;;;;;;;17.58;10.02;;;;;;;;;;4995703;28;20088;-64
2023/09/02 02:54:04;;;;;;;20.98;10.50;;;;;;;;;;4994956;28;20034;-65
2023/09/02 02:56:31;;;;;;;17.50;10.02;;;;;;;;;;4994791;28;20114;-67
2023/09/02 02:58:58;;;;;;;18.70;10.70;;;;;;;;;;4996289;28;20137;-64
2023/09/02 03:01:24;;;;;;;20.73;10.77;;;;;;;;;;4995507;28;20082;-66
2023/09/02 03:03:51;;;;;;;19.27;9.98;;;;;;;;;;4994918;28;20048;-66
2023/09/02 03:06:18;;;;;;;16.55;10.38;;;;;;;;;;4992802;28;20057;-62
2023/09/02 03:08:45;;;;;;;17.50;10.00;;;;;;;;;;4993310;28;20886;-64
2023/09/02 03:11:12;;;;;;;18.75;11.00;;;;;;;;;;4993834;28;20418;-65
2023/09/02 03:13:38;;;;;;;17.15;9.82;;;;;;;;;;4990582;28;20034;-65
2023/09/02 03:16:06;;;;;;;15.00;9.90;;;;;;;;;;4994265;28;20373;-65
2023/09/02 03:18:32;;;;;;;15.90;9.75;;;;;;;;;;4993412;28;20061;-63
2023/09/02 03:21:03;;;;;;;17.70;9.90;;;;;;;;;;4994893;28;20037;-63
2023/09/02 03:23:29;;;;;;;16.58;10.30;;;;;;;;;;4992223;28;20046;-63
2023/09/02 03:25:56;;;;;;;16.55;9.95;;;;;;;;;;4992771;28;20114;-61
2023/09/02 03:28:23;;;;;;;19.02;9.55;;;;;;;;;;4995767;28;20068;-66
2023/09/02 03:30:49;;;;;;;19.92;10.15;;;;;;;;;;5005821;28;20053;-64
2023/09/02 03:33:16;;;;;;;17.58;10.10;;;;;;;;;;5015828;28;20045;-64
2023/09/02 03:35:44;;;;;;;17.40;9.73;;;;;;;;;;4994516;28;20116;-64
2023/09/02 03:38:11;;;;;;;17.30;10.05;;;;;;;;;;4994846;28;20201;-63
2023/09/02 03:40:37;;;;;;;18.08;10.23;;;;;;;;;;4994099;28;20207;-66
2023/09/02 03:43:05;;;;;;;21.13;10.48;;;;;;;;;;4994992;28;20041;-63
2023/09/02 03:45:32;;;;;;;16.45;10.27;;;;;;;;;;4991217;28;20356;-66
2023/09/02 03:47:59;;;;;;;18.42;8.90;;;;;;;;;;4994862;28;20172;-65
2023/09/02 03:50:27;;;;;;;18.95;10.02;;;;;;;;;;4994644;28;20174;-63
2023/09/02 03:52:53;;;;;;;15.43;9.70;;;;;;;;;;5021605;28;20034;-63
2023/09/02 03:55:21;;;;;;;17.15;10.35;;;;;;;;;;4990143;28;20779;-63
2023/09/02 03:57:48;;;;;;;16.77;10.15;;;;;;;;;;4991162;28;20034;-62
2023/09/02 04:00:16;;;;;;;19.52;11.48;;;;;;;;;;4991354;28;20101;-64
2023/09/02 04:02:42;;;;;;;18.95;10.95;;;;;;;;;;4990148;28;20037;-65
2023/09/02 04:05:09;;;;;;;22.60;10.95;;;;;;;;;;4989868;28;20425;-64
2023/09/02 04:07:36;;;;;;;21.88;11.02;;;;;;;;;;4989815;28;20438;-65
2023/09/02 04:10:03;;;;;;;18.60;10.75;;;;;;;;;;4990075;28;20048;-63
2023/09/02 04:12:29;;;;;;;17.85;10.73;;;;;;;;;;4990483;28;20034;-66
2023/09/02 04:14:56;;;;;;;20.73;11.13;;;;;;;;;;4989145;28;20080;-66
2023/09/02 04:17:23;;;;;;;20.58;10.50;;;;;;;;;;4990454;28;20481;-64
2023/09/02 04:19:49;;;;;;;16.95;9.95;;;;;;;;;;4989980;28;20097;-62
2023/09/02 04:22:16;;;;;;;22.70;10.38;;;;;;;;;;4992288;28;20064;-63
2023/09/02 04:24:43;;;;;;;17.63;10.40;;;;;;;;;;4992225;28;20264;-64
2023/09/02 04:27:09;;;;;;;17.27;10.23;;;;;;;;;;4993265;28;20486;-63
2023/09/02 04:29:36;;;;;;;18.70;10.43;;;;;;;;;;4993416;28;20049;-63
2023/09/02 04:32:03;;;;;;;18.85;11.32;;;;;;;;;;4993739;28;20042;-64
2023/09/02 04:34:29;;;;;;;17.20;10.35;;;;;;;;;;4992046;28;20050;-63
2023/09/02 04:36:56;;;;;;;22.02;11.30;;;;;;;;;;4993814;28;20046;-63
2023/09/02 04:39:22;;;;;;;20.77;10.95;;;;;;;;;;4998375;28;21468;-67
2023/09/02 04:41:49;;;;;;;25.05;11.40;;;;;;;;;;4996194;28;20097;-64
2023/09/02 04:44:19;;;;;;;20.83;11.40;;;;;;;;;;4996718;28;20038;-62
2023/09/02 04:46:46;;;;;;;19.30;10.95;;;;;;;;;;5007119;28;20050;-64
2023/09/02 04:49:12;;;;;;;19.33;11.50;;;;;;;;;;4997990;28;20042;-64
2023/09/02 04:51:39;;;;;;;20.02;11.32;;;;;;;;;;4994309;28;20081;-65
2023/09/02 04:54:05;;;;;;;19.17;11.25;;;;;;;;;;5009615;28;20059;-64
2023/09/02 04:56:32;;;;;;;20.13;10.95;;;;;;;;;;4997399;28;20042;-63
2023/09/02 04:58:59;;;;;;;22.67;11.70;;;;;;;;;;4998563;28;20052;-64
2023/09/02 05:01:25;;;;;;;22.88;11.57;;;;;;;;;;4998434;28;20152;-64
2023/09/02 05:03:52;;;;;;;21.25;11.35;;;;;;;;;;4997654;28;20060;-64
2023/09/02 05:06:18;;;;;;;24.17;11.30;;;;;;;;;;4996932;28;20683;-67
2023/09/02 05:08:45;;;;;;;20.77;11.60;;;;;;;;;;5009693;28;20528;-66
2023/09/02 05:11:12;;;;;;;24.70;11.40;;;;;;;;;;5013647;28;20073;-66
2023/09/02 05:13:38;;;;;;;20.65;11.95;;;;;;;;;;5004142;28;20038;-64
2023/09/02 05:16:25;;;;;;;20.75;11.15;;;;;;;;;;5026993;28;20059;-67
2023/09/02 05:18:51;;;;;;;23.38;10.98;;;;;;;;;;5017167;28;20111;-63
2023/09/02 05:21:18;;;;;;;18.65;10.52;;;;;;;;;;5030603;28;20064;-66
2023/09/02 05:24:04;;;;;;;18.95;10.88;;;;;;;;;;5010652;28;20528;-63
2023/09/02 05:26:32;;;;;;;18.45;11.02;;;;;;;;;;5011028;28;20041;-65
2023/09/02 05:28:59;;;;;;;16.83;10.20;;;;;;;;;;5011257;28;20854;-63
2023/09/02 05:31:25;;;;;;;21.05;10.60;;;;;;;;;;5012585;28;21378;-64
2023/09/02 05:33:52;;;;;;;23.23;11.10;;;;;;;;;;5012112;28;20204;-66
2023/09/02 05:36:19;;;;;;;21.92;10.32;;;;;;;;;;5012763;28;20068;-63
2023/09/02 05:38:45;;;;;;;18.23;9.35;;;;;;;;;;5013310;28;20056;-64
2023/09/02 05:41:12;;;;;;;18.70;9.93;;;;;;;;;;5011449;28;20030;-63
2023/09/02 05:43:39;;;;;;;14.77;8.38;;;;;;;;;;5010119;28;20164;-65
2023/09/02 05:46:05;;;;;;;15.82;8.43;;;;;;;;;;5011540;28;21400;-65
2023/09/02 05:48:33;;;;;;;15.32;8.50;;;;;;;;;;5009530;28;20037;-65
2023/09/02 05:51:00;;;;;;;15.60;8.20;;;;;;;;;;5000954;28;20061;-66
2023/09/02 05:53:26;;;;;;;15.10;8.00;;;;;;;;;;5001277;28;20125;-66
2023/09/02 05:55:56;;;;;;;19.77;9.00;;;;;;;;;;4988854;28;20041;-66
2023/09/02 05:58:24;;;;;;;15.55;8.15;;;;;;;;;;4992144;28;20512;-64
2023/09/02 06:00:51;;;;;;;13.70;8.23;;;;;;;;;;4991467;28;20046;-64
2023/09/02 06:03:17;;;;;;;14.02;8.43;;;;;;;;;;5005711;28;20060;-68
2023/09/02 06:05:44;;;;;;;13.45;7.30;;;;;;;;;;5005678;28;20125;-64
2023/09/02 06:08:10;;;;;;;13.75;8.10;;;;;;;;;;5006282;28;20143;-63
2023/09/02 06:10:37;;;;;;;15.70;7.80;;;;;;;;;;4990900;28;20080;-64
2023/09/02 06:13:04;;;;;;;14.20;7.65;;;;;;;;;;4992311;28;20503;-63
2023/09/02 06:15:31;;;;;;;14.27;7.40;;;;;;;;;;4990344;28;20069;-64
2023/09/02 06:17:57;;;;;;;12.85;7.20;;;;;;;;;;4991280;28;20352;-63
2023/09/02 06:20:24;;;;;;;12.30;6.80;;;;;;;;;;5006759;28;20042;-64
2023/09/02 06:22:51;;;;;;;12.88;7.32;;;;;;;;;;5006095;28;20398;-63
2023/09/02 06:25:18;;;;;;;14.68;7.03;;;;;;;;;;4991841;28;20042;-64
2023/09/02 06:27:44;;;;;;;12.02;6.05;;;;;;;;;;4990123;28;20588;-63
2023/09/02 06:30:11;;;;;;;13.00;5.72;;;;;;;;;;4991623;28;20054;-65
2023/09/02 06:32:38;;;;;;;10.50;5.28;;;;;;;;;;4991466;28;20084;-63
2023/09/02 06:35:05;;;;;;;8.75;5.13;;;;;;;;;;4991273;28;20072;-64
2023/09/02 06:37:32;;;;;;;10.38;5.43;;;;;;;;;;4991059;28;20057;-64
2023/09/02 06:39:58;;;;;;;9.30;4.90;;;;;;;;;;4991818;28;20038;-63
2023/09/02 06:42:25;;;;;;;8.85;4.40;;;;;;;;;;4990274;28;20034;-64
2023/09/02 06:44:55;;;;;;;9.07;4.47;;;;;;;;;;4990372;28;20034;-63
2023/09/02 06:47:22;;;;;;;7.93;3.88;;;;;;;;;;4992312;28;20045;-63
2023/09/02 06:49:48;;;;;;;8.82;4.50;;;;;;;;;;4990456;28;20137;-62
2023/09/02 06:52:15;;;;;;;9.25;3.88;;;;;;;;;;4990188;28;20038;-62
2023/09/02 06:54:42;;;;;;;6.82;3.85;;;;;;;;;;4991804;28;20386;-63
2023/09/02 06:57:08;;;;;;;9.05;3.67;;;;;;;;;;4992728;28;20069;-64
2023/09/02 06:59:35;;;;;;;6.95;3.10;;;;;;;;;;4989484;28;20070;-63
2023/09/02 07:02:02;;;;;;;6.95;3.25;;;;;;;;;;4992349;28;20045;-63
2023/09/02 07:04:29;;;;;;;9.18;3.72;;;;;;;;;;4990924;28;20046;-63
2023/09/02 07:06:55;;;;;;;6.72;3.70;;;;;;;;;;4992063;28;20973;-63
2023/09/02 07:09:22;;;;;;;6.45;3.33;;;;;;;;;;4991381;28;20280;-65
2023/09/02 07:11:49;;;;;;;6.68;3.47;;;;;;;;;;4991736;28;20327;-65
2023/09/02 07:14:15;;;;;;;6.68;3.50;;;;;;;;;;4991982;28;20092;-65
2023/09/02 07:16:42;;;;;;;6.60;3.42;;;;;;;;;;4991599;28;20060;-65
2023/09/02 07:19:08;;;;;;;6.50;3.10;;;;;;;;;;4992891;28;20141;-62
2023/09/02 07:21:35;;;;;;;6.20;3.20;;;;;;;;;;4991333;28;20038;-63
2023/09/02 07:24:02;;;;;;;7.28;3.03;;;;;;;;;;5007026;28;20801;-64
2023/09/02 07:26:32;;;;;;;7.35;3.00;;;;;;;;;;4991557;28;20171;-63
2023/09/02 07:28:59;;;;;;;6.63;3.13;;;;;;;;;;4990422;28;20439;-62
2023/09/02 07:31:25;;;;;;;6.60;2.92;;;;;;;;;;5003989;28;20049;-66
2023/09/02 07:33:52;;;;;;;9.23;3.15;;;;;;;;;;4990477;28;20037;-64
2023/09/02 07:36:19;;;;;;;6.03;3.10;;;;;;;;;;4990413;28;20075;-63
2023/09/02 07:38:45;;;;;;;6.03;3.30;;;;;;;;;;4991488;28;20046;-65
2023/09/02 07:41:12;;;;;;;7.35;3.03;;;;;;;;;;4992458;28;20052;-65
2023/09/02 07:43:39;;;;;;;7.03;3.40;;;;;;;;;;5021404;28;21522;-63
2023/09/02 07:46:05;;;;;;;6.53;3.10;;;;;;;;;;4991117;28;20370;-64
2023/09/02 07:48:32;;;;;;;8.02;3.03;;;;;;;;;;4988718;28;20042;-65
2023/09/02 07:51:00;;;;;;;5.68;2.80;;;;;;;;;;4990821;28;20049;-63
2023/09/02 07:53:27;;;;;;;7.57;3.10;;;;;;;;;;4990591;28;20866;-66
2023/09/02 07:55:53;;;;;;;6.13;2.85;;;;;;;;;;4990729;28;20049;-65
2023/09/02 07:58:20;;;;;;;5.43;2.90;;;;;;;;;;4990951;28;20107;-63
2023/09/02 08:00:46;;;;;;;6.10;3.08;;;;;;;;;;4991158;28;20073;-64
2023/09/02 08:03:13;;;;;;;5.13;2.75;;;;;;;;;;5007337;28;20216;-63
2023/09/02 08:05:40;;;;;;;5.30;2.60;;;;;;;;;;4990293;28;20041;-63
2023/09/02 08:08:07;;;;;;;6.85;3.00;;;;;;;;;;4990148;28;20525;-63
2023/09/02 08:10:34;;;;;;;5.85;2.90;;;;;;;;;;4991204;28;20501;-63
2023/09/02 08:13:01;;;;;;;6.35;2.90;;;;;;;;;;4993324;28;20122;-63
2023/09/02 08:15:27;;;;;;;6.00;2.80;;;;;;;;;;4994197;28;20092;-63
2023/09/02 08:17:55;;;;;;;5.53;2.70;;;;;;;;;;5011583;28;20046;-63
2023/09/02 08:20:25;;;;;;;6.82;2.83;;;;;;;;;;4996119;28;20836;-67
2023/09/02 08:22:52;;;;;;;5.32;2.50;;;;;;;;;;4994326;28;20038;-63
2023/09/02 08:25:18;;;;;;;6.25;2.63;;;;;;;;;;4994603;28;20038;-65
2023/09/02 08:27:46;;;;;;;5.07;2.40;;;;;;;;;;4994311;28;20072;-62
2023/09/02 08:30:13;;;;;;;6.50;3.00;;;;;;;;;;4994561;28;20529;-63
2023/09/02 08:32:40;;;;;;;5.70;2.67;;;;;;;;;;5009190;28;20050;-63
2023/09/02 08:35:08;;;;;;;4.95;2.50;;;;;;;;;;4995113;28;20072;-64
2023/09/02 08:37:37;;;;;;;5.85;2.60;;;;;;;;;;4993453;28;20033;-64
2023/09/02 08:40:03;;;;;;;5.35;2.35;;;;;;;;;;4994096;28;20046;-64
2023/09/02 08:42:32;;;;;;;4.85;2.42;;;;;;;;;;4993313;28;20071;-64
2023/09/02 08:45:00;;;;;;;5.60;2.55;;;;;;;;;;5009089;28;20080;-64
2023/09/02 08:47:30;;;;;;;5.00;2.58;;;;;;;;;;5008588;28;20046;-64
2023/09/02 08:49:57;;;;;;;6.22;2.50;;;;;;;;;;5007997;28;20050;-64
2023/09/02 08:52:25;;;;;;;7.18;2.78;;;;;;;;;;5007869;28;20044;-62
2023/09/02 08:54:52;;;;;;;6.55;2.65;;;;;;;;;;4991770;28;20064;-62
2023/09/02 08:57:19;;;;;;;5.72;2.53;;;;;;;;;;4993631;28;20062;-65
2023/09/02 08:59:46;;;;;;;6.57;2.90;;;;;;;;;;4993433;28;20054;-63
2023/09/02 09:02:12;;;;;;;7.78;2.78;;;;;;;;;;4993273;28;20042;-64
2023/09/02 09:04:40;;;;;;;6.13;2.40;;;;;;;;;;5005231;28;20522;-63
2023/09/02 09:07:06;;;;;;;7.70;2.60;;;;;;;;;;4993338;28;20038;-64
2023/09/02 09:09:35;;;;;;;5.65;2.85;;;;;;;;;;4992404;28;20032;-63
2023/09/02 09:12:03;;;;;;;5.38;2.53;;;;;;;;;;4993129;28;20498;-63
2023/09/02 09:14:32;;;;;;;6.75;2.60;;;;;;;;;;4992772;28;20046;-64
2023/09/02 09:16:59;;;;;;;5.72;2.60;;;;;;;;;;4993375;28;20038;-63
2023/09/02 09:19:27;;;;;;;6.32;2.60;;;;;;;;;;4993321;28;20243;-64
2023/09/02 09:21:57;;;;;;;6.90;2.58;;;;;;;;;;5008482;28;20038;-63
2023/09/02 09:24:24;;;;;;;6.03;3.00;;;;;;;;;;5005436;28;20034;-63
2023/09/02 09:26:51;;;;;;;6.38;2.95;;;;;;;;;;4991721;28;20077;-64
2023/09/02 09:29:20;;;;;;;4.25;2.13;;;;;;;;;;4993703;28;20448;-65
2023/09/02 09:31:48;;;;;;;7.03;2.90;;;;;;;;;;4994517;28;20538;-63
2023/09/02 09:34:15;;;;;;;5.45;2.80;;;;;;;;;;5010857;28;21735;-64
2023/09/02 09:36:43;;;;;;;5.30;2.42;;;;;;;;;;5007995;28;20186;-63
2023/09/02 09:39:10;;;;;;;5.50;2.67;;;;;;;;;;5011113;28;20416;-63
2023/09/02 09:41:45;;;;;;;5.82;2.65;;;;;;;;;;4995418;28;20046;-63
2023/09/02 09:44:13;;;;;;;5.43;2.65;;;;;;;;;;4994888;28;20168;-64
2023/09/02 09:46:52;;;;;;;6.00;2.53;;;;;;;;;;4996240;28;20044;-64
2023/09/02 09:49:25;;;;;;;5.55;2.60;;;;;;;;;;4999622;28;20303;-64
2023/09/02 09:51:51;;;;;;;;;;;;;;;;;;4995179;28;20626;-65
2023/09/02 09:54:18;;;;;;;5.75;2.47;;;;;;;;;;4995455;28;19924;-64
2023/09/02 09:56:45;;;;;;;5.30;2.45;;;;;;;;;;4994912;28;20038;-64
2023/09/02 09:59:12;;;;;;;5.53;2.30;;;;;;;;;;4994750;28;20361;-63
2023/09/02 10:01:38;;;;;;;5.78;2.50;;;;;;;;;;4994030;28;20310;-65
2023/09/02 10:04:08;;;;;;;6.75;2.85;;;;;;;;;;4995292;28;20282;-63
2023/09/02 10:06:41;;;;;;;10.60;2.80;;;;;;;;;;4995258;28;20041;-64
2023/09/02 10:09:07;;;;;;;5.60;2.50;;;;;;;;;;4995738;28;20421;-63
2023/09/02 10:11:35;;;;;;;7.40;3.08;;;;;;;;;;4994603;28;20576;-66
2023/09/02 10:14:03;;;;;;;5.35;2.63;;;;;;;;;;5001867;28;20045;-64
2023/09/02 10:16:30;;;;;;;6.95;2.75;;;;;;;;;;5009513;28;20042;-64
2023/09/02 10:18:58;;;;;;;5.90;2.60;;;;;;;;;;4996048;28;20045;-63
2023/09/02 10:21:28;;;;;;;6.28;2.72;;;;;;;;;;4994004;28;20076;-62
2023/09/02 10:23:55;;;;;;;4.28;2.05;;;;;;;;;;5008058;28;20042;-63
2023/09/02 10:26:27;;;;;;;4.80;2.58;;;;;;;;;;4998304;28;20038;-65
2023/09/02 10:28:58;;;;;;;6.57;2.70;;;;;;;;;;4996076;28;21515;-63
2023/09/02 10:31:26;;;;;;;5.05;2.00;;;;;;;;;;4993807;28;20116;-63
2023/09/02 10:33:56;;;;;;;5.05;2.22;;;;;;;;;;5009891;28;20042;-67
2023/09/02 10:36:24;;;;;;;4.78;2.20;;;;;;;;;;5011347;28;20069;-64
2023/09/02 10:38:53;;;;;;;5.00;2.25;;;;;;;;;;4996234;28;20394;-64
2023/09/02 10:41:20;;;;;;;5.85;2.40;;;;;;;;;;4995069;28;20048;-64
2023/09/02 10:43:47;;;;;;;4.70;2.20;;;;;;;;;;4995972;28;20649;-64
2023/09/02 10:46:14;;;;;;;4.90;2.25;;;;;;;;;;4996567;28;20034;-64
2023/09/02 10:48:43;;;;;;;6.57;2.53;;;;;;;;;;4995737;28;20133;-65
2023/09/02 10:51:10;;;;;;;5.45;2.40;;;;;;;;;;4994905;28;20049;-64
2023/09/02 10:53:50;;;;;;;4.97;2.30;;;;;;;;;;5008389;28;20036;-64
2023/09/02 10:56:26;;;;;;;5.28;2.50;;;;;;;;;;4993941;28;20042;-64
2023/09/02 10:58:53;;;;;;;4.70;2.40;;;;;;;;;;4994233;28;20502;-63
2023/09/02 11:01:20;;;;;;;5.00;2.30;;;;;;;;;;4994250;28;20482;-64
2023/09/02 11:03:48;;;;;;;5.65;1.95;;;;;;;;;;5008625;28;21222;-64
2023/09/02 11:06:18;;;;;;;5.20;2.20;;;;;;;;;;4994913;28;20131;-63
2023/09/02 11:08:49;;;;;;;6.25;2.38;;;;;;;;;;4993677;28;21370;-62
2023/09/02 11:11:16;;;;;;;5.18;2.60;;;;;;;;;;4993230;28;20057;-63
2023/09/02 11:14:01;;;;;;;5.07;2.10;;;;;;;;;;4993225;28;20065;-63
2023/09/02 11:16:28;;;;;;;4.43;1.92;;;;;;;;;;4993546;28;20038;-64
2023/09/02 11:18:54;;;;;;;4.68;2.00;;;;;;;;;;4995301;28;20034;-63
2023/09/02 11:21:41;;;;;;;5.70;2.35;;;;;;;;;;4994237;28;20050;-64
2023/09/02 11:24:13;;;;;;;4.38;2.10;;;;;;;;;;4994173;28;20521;-64
2023/09/02 11:26:52;;;;;;;5.68;2.38;;;;;;;;;;4993937;28;20048;-64
2023/09/02 11:29:26;;;;;;;4.90;2.15;;;;;;;;;;4994708;28;20084;-65
2023/09/02 11:31:58;;;;;;;5.85;2.45;;;;;;;;;;4992588;28;20533;-65
2023/09/02 11:34:28;;;;;;;4.78;2.30;;;;;;;;;;4992923;28;20046;-64
2023/09/02 11:36:56;;;;;;;4.38;2.10;;;;;;;;;;5008458;28;20494;-64
2023/09/02 11:39:26;;;;;;;4.03;1.92;;;;;;;;;;4993182;28;20046;-64
2023/09/02 11:42:08;;;;;;;5.78;2.50;;;;;;;;;;4994230;28;20466;-64
2023/09/02 11:44:35;;;;;;;5.03;2.33;;;;;;;;;;4993546;28;20042;-64
2023/09/02 11:47:02;;;;;;;5.10;2.33;;;;;;;;;;4994517;28;20279;-64
2023/09/02 11:49:29;;;;;;;4.20;2.13;;;;;;;;;;5009244;28;20085;-64
2023/09/02 11:51:56;;;;;;;5.13;2.40;;;;;;;;;;4994485;28;20054;-64
2023/09/02 11:54:23;;;;;;;4.80;2.30;;;;;;;;;;4993794;28;20038;-63
2023/09/02 11:57:02;;;;;;;4.90;2.25;;;;;;;;;;4995118;28;21329;-63
2023/09/02 11:59:29;;;;;;;5.15;2.33;;;;;;;;;;4994488;28;20041;-63
2023/09/02 12:02:12;;;;;;;4.13;2.00;;;;;;;;;;4995248;28;20124;-64
2023/09/02 12:04:40;;;;;;;5.80;2.40;;;;;;;;;;4993282;28;20058;-63
2023/09/02 12:07:07;;;;;;;4.65;2.10;;;;;;;;;;4993850;28;20042;-63
2023/09/02 12:09:37;;;;;;;4.90;2.35;;;;;;;;;;4993108;28;20038;-64
2023/09/02 12:12:05;;;;;;;4.63;2.17;;;;;;;;;;4992816;28;20053;-64
2023/09/02 12:14:31;;;;;;;4.85;2.40;;;;;;;;;;4992752;28;20402;-65
2023/09/02 12:16:59;;;;;;;6.05;2.28;;;;;;;;;;4993987;28;20498;-64
2023/09/02 12:19:26;;;;;;;4.63;2.05;;;;;;;;;;4992770;28;20038;-64
2023/09/02 12:21:53;;;;;;;4.20;1.90;;;;;;;;;;4993400;28;20137;-64
2023/09/02 12:24:20;;;;;;;5.18;2.35;;;;;;;;;;4993032;28;21278;-65
2023/09/02 12:26:49;;;;;;;4.85;2.42;;;;;;;;;;4992713;28;20034;-63
2023/09/02 12:29:35;;;;;;;4.38;2.20;;;;;;;;;;5018271;28;20492;-63
2023/09/02 12:32:02;;;;;;;5.07;2.28;;;;;;;;;;5028805;28;20060;-65
2023/09/02 12:34:33;;;;;;;6.82;2.40;;;;;;;;;;5027620;28;20037;-64
2023/09/02 12:37:13;;;;;;;5.43;2.50;;;;;;;;;;5027942;28;20037;-64
2023/09/02 12:39:40;;;;;;;6.10;2.67;;;;;;;;;;5028510;28;20048;-63
2023/09/02 12:42:16;;;;;;;4.85;2.50;;;;;;;;;;5029428;28;20068;-63
2023/09/02 12:44:52;;;;;;;5.50;2.47;;;;;;;;;;5028994;28;20033;-64
2023/09/02 12:47:19;;;;;;;5.35;2.80;;;;;;;;;;5029160;28;20208;-64
2023/09/02 12:49:46;;;;;;;8.32;2.45;;;;;;;;;;5010630;28;20151;-63
2023/09/02 12:52:22;;;;;;;5.47;2.60;;;;;;;;;;5028589;28;20049;-64
2023/09/02 12:54:56;;;;;;;6.35;2.33;;;;;;;;;;5024321;28;20037;-63
2023/09/02 12:57:26;;;;;;;8.65;2.90;;;;;;;;;;5027740;28;20352;-64
2023/09/02 12:59:53;;;;;;;6.60;2.83;;;;;;;;;;5028084;28;20452;-67
2023/09/02 13:02:20;;;;;;;6.80;2.72;;;;;;;;;;5016346;28;20079;-63
2023/09/02 13:04:47;;;;;;;5.82;2.92;;;;;;;;;;5001655;28;20280;-70
2023/09/02 13:07:14;;;;;;;6.72;2.90;;;;;;;;;;4996851;28;20030;-66
2023/09/02 13:09:40;;;;;;;8.50;3.03;;;;;;;;;;5006618;28;20037;-65
2023/09/02 13:12:07;;;;;;;7.15;2.92;;;;;;;;;;4994760;28;20454;-65
2023/09/02 13:14:34;;;;;;;6.90;2.55;;;;;;;;;;4994988;28;20084;-64
2023/09/02 13:17:00;;;;;;;5.68;2.35;;;;;;;;;;4996312;28;20050;-64
2023/09/02 13:19:29;;;;;;;6.03;2.28;;;;;;;;;;4996386;28;20042;-64
2023/09/02 13:21:56;;;;;;;5.22;2.40;;;;;;;;;;5007699;28;20454;-63
2023/09/02 13:24:25;;;;;;;5.50;2.60;;;;;;;;;;4995774;28;20045;-62
2023/09/02 13:26:52;;;;;;;5.68;2.78;;;;;;;;;;5012181;28;20445;-65
2023/09/02 13:29:19;;;;;;;6.85;2.40;;;;;;;;;;4995034;28;20042;-66
2023/09/02 13:31:46;;;;;;;7.30;2.70;;;;;;;;;;4996152;28;20058;-64
2023/09/02 13:34:32;;;;;;;6.68;2.20;;;;;;;;;;4997679;28;20100;-64
2023/09/02 13:37:17;;;;;;;6.90;2.63;;;;;;;;;;4994840;28;20095;-63
2023/09/02 13:39:45;;;;;;;5.75;2.50;;;;;;;;;;4994650;28;20072;-63
2023/09/02 13:42:18;;;;;;;4.55;2.40;;;;;;;;;;4995000;28;20963;-63
2023/09/02 13:44:45;;;;;;;4.95;2.35;;;;;;;;;;4994742;28;20057;-63
2023/09/02 13:47:14;;;;;;;5.22;2.55;;;;;;;;;;4994909;28;20041;-63
2023/09/02 13:49:41;;;;;;;5.95;2.97;;;;;;;;;;4994126;28;20033;-63
2023/09/02 13:52:09;;;;;;;6.47;2.47;;;;;;;;;;4996169;28;20336;-64
2023/09/02 13:54:36;;;;;;;6.40;2.95;;;;;;;;;;5008674;28;20473;-63
2023/09/02 13:57:04;;;;;;;7.32;2.50;;;;;;;;;;4995568;28;20041;-63
2023/09/02 13:59:32;;;;;;;8.85;2.35;;;;;;;;;;4994561;28;20491;-63
2023/09/02 14:02:02;;;;;;;5.07;2.35;;;;;;;;;;4995441;28;20034;-62
2023/09/02 14:04:29;;;;;;;7.55;2.90;;;;;;;;;;4994052;28;20073;-63
2023/09/02 14:07:00;;;;;;;9.48;4.10;;;;;;;;;;4994545;28;20375;-61
2023/09/02 14:09:27;;;;;;;6.07;2.63;;;;;;;;;;4994846;28;20061;-62
2023/09/02 14:11:54;;;;;;;6.50;2.97;;;;;;;;;;4995291;28;20430;-63
2023/09/02 14:14:22;;;;;;;7.07;2.60;;;;;;;;;;5007591;28;20041;-61
2023/09/02 14:16:49;;;;;;;7.40;2.95;;;;;;;;;;5005257;28;20068;-61
2023/09/02 14:19:16;;;;;;;7.90;3.20;;;;;;;;;;4995576;28;20170;-63
2023/09/02 14:21:43;;;;;;;7.13;2.70;;;;;;;;;;4993881;28;20794;-63
2023/09/02 14:24:10;;;;;;;10.40;3.00;;;;;;;;;;5004761;28;20383;-63
2023/09/02 14:26:37;;;;;;;5.45;2.45;;;;;;;;;;4994908;28;20042;-63
2023/09/02 14:29:03;;;;;;;6.68;2.88;;;;;;;;;;4995375;28;20137;-61
2023/09/02 14:31:31;;;;;;;7.47;2.80;;;;;;;;;;5008445;28;20057;-61
2023/09/02 14:33:58;;;;;;;5.47;2.50;;;;;;;;;;4995865;28;20034;-63
2023/09/02 14:36:24;;;;;;;6.07;2.67;;;;;;;;;;4995829;28;20042;-62
2023/09/02 14:38:51;;;;;;;6.45;2.40;;;;;;;;;;5011742;28;20293;-62